sensor_id;sensor_type;location;lat;lon;timestamp;pressure;altitude;pressure_sealevel;temperature;humidity
1371;BME280;14306;49.942;11.570;2024-02-04T00:01:04;98036.53;;;8.48;100.00
1371;BME280;14306;49.942;11.570;2024-02-04T00:02:39;98039.75;;;8.45;100.00
1371;BME280;14306;49.942;11.570;2024-02-04T00:04:14;98046.81;;;8.36;100.00
1371;BME280;14306;49.942;11.570;2024-02-04T00:05:48;98034.94;;;8.42;100.00
1371;BME280;14306;49.942;11.570;2024-02-04T00:07:23;98044.38;;;8.35;100.00
1371;BME280;14306;49.942;11.570;2024-02-04T00:08:56;98034.38;;;8.40;100.00
1371;BME280;14306;49.942;11.570;2024-02-04T00:10:31;98047.88;;;8.45;100.00
1371;BME280;14306;49.942;11.570;2024-02-04T00:12:05;98031.94;;;8.44;100.00
1371;BME280;14306;49.942;11.570;2024-02-04T00:13:40;98045.44;;;8.49;100.00
1371;BME280;14306;49.942;11.570;2024-02-04T00:15:13;98039.75;;;8.45;100.00
1371;BME280;14306;49.942;11.570;2024-02-04T00:16:47;98030.84;;;8.50;100.00
1371;BME280;14306;49.942;11.570;2024-02-04T00:18:22;98024.66;;;8.44;100.00
1371;BME280;14306;49.942;11.570;2024-02-04T00:19:57;98035.16;;;8.56;100.00
1371;BME280;14306;49.942;11.570;2024-02-04T00:21:32;98033.25;;;8.56;100.00
1371;BME280;14306;49.942;11.570;2024-02-04T00:23:05;98044.91;;;8.42;100.00
1371;BME280;14306;49.942;11.570;2024-02-04T00:24:40;98030.84;;;8.50;100.00
1371;BME280;14306;49.942;11.570;2024-02-04T00:26:14;98027.06;;;8.56;100.00
1371;BME280;14306;49.942;11.570;2024-02-04T00:27:48;98032.44;;;8.61;100.00
1371;BME280;14306;49.942;11.570;2024-02-04T00:29:21;98028.94;;;8.55;100.00
1371;BME280;14306;49.942;11.570;2024-02-04T00:30:56;98023.53;;;8.55;100.00
1371;BME280;14306;49.942;11.570;2024-02-04T00:32:32;98029.75;;;8.51;100.00
1371;BME280;14306;49.942;11.570;2024-02-04T00:34:07;97991.22;;;8.40;100.00
1371;BME280;14306;49.942;11.570;2024-02-04T00:35:42;98011.44;;;8.48;100.00
1371;BME280;14306;49.942;11.570;2024-02-04T00:37:17;98013.81;;;8.59;100.00
1371;BME280;14306;49.942;11.570;2024-02-04T00:38:50;98004.34;;;8.62;100.00
1371;BME280;14306;49.942;11.570;2024-02-04T00:40:25;98024.13;;;8.47;100.00
1371;BME280;14306;49.942;11.570;2024-02-04T00:41:59;98014.34;;;8.56;100.00
1371;BME280;14306;49.942;11.570;2024-02-04T00:43:34;97993.09;;;8.45;100.00
1371;BME280;14306;49.942;11.570;2024-02-04T00:45:08;98021.38;;;8.62;100.00
1371;BME280;14306;49.942;11.570;2024-02-04T00:46:43;98023.00;;;8.58;100.00
1371;BME280;14306;49.942;11.570;2024-02-04T00:48:18;98008.16;;;8.51;100.00
1371;BME280;14306;49.942;11.570;2024-02-04T00:49:53;98015.94;;;8.67;100.00
1371;BME280;14306;49.942;11.570;2024-02-04T00:51:28;98011.94;;;8.60;100.00
1371;BME280;14306;49.942;11.570;2024-02-04T00:53:03;98008.69;;;8.58;100.00
1371;BME280;14306;49.942;11.570;2024-02-04T00:54:36;98013.28;;;8.62;100.00
1371;BME280;14306;49.942;11.570;2024-02-04T00:56:11;98001.72;;;8.52;100.00
1371;BME280;14306;49.942;11.570;2024-02-04T00:57:45;98016.75;;;8.63;100.00
1371;BME280;14306;49.942;11.570;2024-02-04T00:59:19;98011.38;;;8.58;100.00
1371;BME280;14306;49.942;11.570;2024-02-04T01:00:52;98020.31;;;8.58;100.00
1371;BME280;14306;49.942;11.570;2024-02-04T01:02:27;98021.13;;;8.54;100.00
1371;BME280;14306;49.942;11.570;2024-02-04T01:04:00;98028.69;;;8.47;100.00
1371;BME280;14306;49.942;11.570;2024-02-04T01:05:35;98019.03;;;8.41;100.00
1371;BME280;14306;49.942;11.570;2024-02-04T01:07:09;98014.44;;;8.36;100.00
1371;BME280;14306;49.942;11.570;2024-02-04T01:08:44;98027.63;;;8.48;100.00
1371;BME280;14306;49.942;11.570;2024-02-04T01:10:17;98021.94;;;8.49;100.00
1371;BME280;14306;49.942;11.570;2024-02-04T01:11:51;98016.84;;;8.43;100.00
1371;BME280;14306;49.942;11.570;2024-02-04T01:13:28;98030.59;;;8.46;100.00
1371;BME280;14306;49.942;11.570;2024-02-04T01:15:03;98031.91;;;8.59;100.00
1371;BME280;14306;49.942;11.570;2024-02-04T01:16:38;98034.88;;;8.52;100.00
1371;BME280;14306;49.942;11.570;2024-02-04T01:18:12;98037.06;;;8.50;100.00
1371;BME280;14306;49.942;11.570;2024-02-04T01:19:45;98015.75;;;8.44;100.00
1371;BME280;14306;49.942;11.570;2024-02-04T01:21:20;98037.88;;;8.46;100.00
1371;BME280;14306;49.942;11.570;2024-02-04T01:22:56;98023.06;;;8.33;100.00
1371;BME280;14306;49.942;11.570;2024-02-04T01:24:29;98030.34;;;8.43;100.00
1371;BME280;14306;49.942;11.570;2024-02-04T01:26:04;98033.81;;;8.48;100.00
1371;BME280;14306;49.942;11.570;2024-02-04T01:27:38;98031.19;;;8.38;100.00
1371;BME280;14306;49.942;11.570;2024-02-04T01:29:12;98045.97;;;8.51;100.00
1371;BME280;14306;49.942;11.570;2024-02-04T01:30:45;98038.66;;;8.56;100.00
1371;BME280;14306;49.942;11.570;2024-02-04T01:32:19;98029.50;;;8.57;100.00
1371;BME280;14306;49.942;11.570;2024-02-04T01:33:53;98027.06;;;8.56;100.00
1371;BME280;14306;49.942;11.570;2024-02-04T01:35:28;98013.28;;;8.52;100.00
1371;BME280;14306;49.942;11.570;2024-02-04T01:37:01;98023.53;;;8.60;100.00
1371;BME280;14306;49.942;11.570;2024-02-04T01:38:37;98021.91;;;8.59;100.00
1371;BME280;14306;49.942;11.570;2024-02-04T01:40:10;98014.13;;;8.48;100.00
1371;BME280;14306;49.942;11.570;2024-02-04T01:41:46;98014.34;;;8.61;100.00
1371;BME280;14306;49.942;11.570;2024-02-04T01:43:19;98015.38;;;8.70;100.00
1371;BME280;14306;49.942;11.570;2024-02-04T01:44:55;98018.97;;;8.56;100.00
1371;BME280;14306;49.942;11.570;2024-02-04T01:46:29;98002.25;;;8.49;100.00
1371;BME280;14306;49.942;11.570;2024-02-04T01:48:04;98011.66;;;8.61;100.00
1371;BME280;14306;49.942;11.570;2024-02-04T01:49:38;98018.41;;;8.59;100.00
1371;BME280;14306;49.942;11.570;2024-02-04T01:51:14;98010.34;;;8.49;100.00
1371;BME280;14306;49.942;11.570;2024-02-04T01:52:49;98018.66;;;8.62;100.00
1371;BME280;14306;49.942;11.570;2024-02-04T01:54:25;98013.31;;;8.57;100.00
1371;BME280;14306;49.942;11.570;2024-02-04T01:55:59;98011.66;;;8.61;100.00
1371;BME280;14306;49.942;11.570;2024-02-04T01:57:33;98014.06;;;8.63;100.00
1371;BME280;14306;49.942;11.570;2024-02-04T01:59:09;98018.41;;;8.59;100.00
1371;BME280;14306;49.942;11.570;2024-02-04T02:00:45;98013.56;;;8.56;100.00
1371;BME280;14306;49.942;11.570;2024-02-04T02:02:20;98009.56;;;8.43;100.00
1371;BME280;14306;49.942;11.570;2024-02-04T02:03:53;98012.00;;;8.45;100.00
1371;BME280;14306;49.942;11.570;2024-02-04T02:05:28;98015.25;;;8.37;100.00
1371;BME280;14306;49.942;11.570;2024-02-04T02:07:02;98016.28;;;8.46;100.00
1371;BME280;14306;49.942;11.570;2024-02-04T02:08:37;98012.75;;;8.55;100.00
1371;BME280;14306;49.942;11.570;2024-02-04T02:10:12;98006.03;;;8.48;100.00
1371;BME280;14306;49.942;11.570;2024-02-04T02:11:59;98000.34;;;8.54;100.00
1371;BME280;14306;49.942;11.570;2024-02-04T02:13:35;97998.94;;;8.62;100.00
1371;BME280;14306;49.942;11.570;2024-02-04T02:15:14;98002.75;;;8.61;100.00
1371;BME280;14306;49.942;11.570;2024-02-04T02:16:48;97994.94;;;8.54;100.00
1371;BME280;14306;49.942;11.570;2024-02-04T02:18:26;98006.50;;;8.65;100.00
1371;BME280;14306;49.942;11.570;2024-02-04T02:20:04;98005.44;;;8.61;100.00
1371;BME280;14306;49.942;11.570;2024-02-04T02:21:47;98007.06;;;8.57;100.00
1371;BME280;14306;49.942;11.570;2024-02-04T02:23:30;98002.25;;;8.49;100.00
1371;BME280;14306;49.942;11.570;2024-02-04T02:25:07;98007.34;;;8.55;100.00
1371;BME280;14306;49.942;11.570;2024-02-04T02:26:41;97988.22;;;8.47;100.00
1371;BME280;14306;49.942;11.570;2024-02-04T02:28:16;98001.97;;;8.45;100.00
1371;BME280;14306;49.942;11.570;2024-02-04T02:29:49;97993.88;;;8.45;100.00
1371;BME280;14306;49.942;11.570;2024-02-04T02:31:23;98003.91;;;8.35;100.00
1371;BME280;14306;49.942;11.570;2024-02-04T02:33:12;98000.66;;;8.48;100.00
1371;BME280;14306;49.942;11.570;2024-02-04T02:34:46;98003.03;;;8.54;100.00
1371;BME280;14306;49.942;11.570;2024-02-04T02:36:21;98004.94;;;8.54;100.00
1371;BME280;14306;49.942;11.570;2024-02-04T02:38:08;98004.09;;;8.53;100.00
1371;BME280;14306;49.942;11.570;2024-02-04T02:39:49;97993.06;;;8.50;100.00
1371;BME280;14306;49.942;11.570;2024-02-04T02:41:27;97996.59;;;8.50;100.00
1371;BME280;14306;49.942;11.570;2024-02-04T02:43:03;98009.22;;;8.55;100.00
1371;BME280;14306;49.942;11.570;2024-02-04T02:44:38;98004.94;;;8.54;100.00
1371;BME280;14306;49.942;11.570;2024-02-04T02:46:12;98013.03;;;8.44;100.00
1371;BME280;14306;49.942;11.570;2024-02-04T02:47:47;98011.72;;;8.41;100.00
1371;BME280;14306;49.942;11.570;2024-02-04T02:49:21;98006.84;;;8.43;100.00
1371;BME280;14306;49.942;11.570;2024-02-04T02:50:55;98018.75;;;8.42;100.00
1371;BME280;14306;49.942;11.570;2024-02-04T02:52:28;98009.59;;;8.33;100.00
1371;BME280;14306;49.942;11.570;2024-02-04T02:54:03;97998.00;;;8.28;100.00
1371;BME280;14306;49.942;11.570;2024-02-04T02:55:36;98022.22;;;8.43;100.00
1371;BME280;14306;49.942;11.570;2024-02-04T02:57:12;98013.91;;;8.34;100.00
1371;BME280;14306;49.942;11.570;2024-02-04T02:58:45;98022.00;;;8.39;100.00
1371;BME280;14306;49.942;11.570;2024-02-04T03:00:20;98022.25;;;8.48;100.00
1371;BME280;14306;49.942;11.570;2024-02-04T03:01:53;98001.75;;;8.42;100.00
1371;BME280;14306;49.942;11.570;2024-02-04T03:03:27;98014.44;;;8.36;100.00
1371;BME280;14306;49.942;11.570;2024-02-04T03:05:02;98014.41;;;8.41;100.00
1371;BME280;14306;49.942;11.570;2024-02-04T03:06:36;98003.88;;;8.45;100.00
1371;BME280;14306;49.942;11.570;2024-02-04T03:08:10;98014.66;;;8.50;100.00
1371;BME280;14306;49.942;11.570;2024-02-04T03:09:43;98014.69;;;8.45;100.00
1371;BME280;14306;49.942;11.570;2024-02-04T03:11:18;98011.97;;;8.50;100.00
1371;BME280;14306;49.942;11.570;2024-02-04T03:12:53;98013.31;;;8.47;100.00
1371;BME280;14306;49.942;11.570;2024-02-04T03:14:27;98014.97;;;8.43;100.00
1371;BME280;14306;49.942;11.570;2024-02-04T03:16:01;97990.44;;;8.19;100.00
1371;BME280;14306;49.942;11.570;2024-02-04T03:17:35;98015.75;;;8.49;100.00
1371;BME280;14306;49.942;11.570;2024-02-04T03:19:10;98010.34;;;8.49;100.00
1371;BME280;14306;49.942;11.570;2024-02-04T03:20:43;98004.94;;;8.44;100.00
1371;BME280;14306;49.942;11.570;2024-02-04T03:22:17;98001.13;;;8.55;100.00
1371;BME280;14306;49.942;11.570;2024-02-04T03:23:51;98000.38;;;8.44;100.00
1371;BME280;14306;49.942;11.570;2024-02-04T03:25:25;97995.22;;;8.53;100.00
1371;BME280;14306;49.942;11.570;2024-02-04T03:27:02;98001.22;;;8.35;100.00
1371;BME280;14306;49.942;11.570;2024-02-04T03:28:37;97998.28;;;8.31;100.00
1371;BME280;14306;49.942;11.570;2024-02-04T03:30:11;97993.13;;;8.35;100.00
1371;BME280;14306;49.942;11.570;2024-02-04T03:31:45;97984.22;;;8.34;100.00
1371;BME280;14306;49.942;11.570;2024-02-04T03:33:19;97998.75;;;8.43;100.00
1371;BME280;14306;49.942;11.570;2024-02-04T03:34:53;97976.13;;;8.29;100.00
1371;BME280;14306;49.942;11.570;2024-02-04T03:36:27;97985.00;;;8.40;100.00
1371;BME280;14306;49.942;11.570;2024-02-04T03:38:01;97983.34;;;8.44;100.00
1371;BME280;14306;49.942;11.570;2024-02-04T03:39:35;97991.47;;;8.44;100.00
1371;BME280;14306;49.942;11.570;2024-02-04T03:41:10;97979.06;;;8.43;100.00
1371;BME280;14306;49.942;11.570;2024-02-04T03:42:43;97984.19;;;8.44;100.00
1371;BME280;14306;49.942;11.570;2024-02-04T03:44:19;97996.84;;;8.49;100.00
1371;BME280;14306;49.942;11.570;2024-02-04T03:45:52;97992.00;;;8.46;100.00
1371;BME280;14306;49.942;11.570;2024-02-04T03:47:26;97997.91;;;8.53;100.00
1371;BME280;14306;49.942;11.570;2024-02-04T03:48:59;97991.25;;;8.35;100.00
1371;BME280;14306;49.942;11.570;2024-02-04T03:50:35;98011.44;;;8.43;100.00
1371;BME280;14306;49.942;11.570;2024-02-04T03:52:10;98008.53;;;8.34;100.00
1371;BME280;14306;49.942;11.570;2024-02-04T03:53:43;97996.63;;;8.35;100.00
1371;BME280;14306;49.942;11.570;2024-02-04T03:55:17;98007.16;;;8.32;100.00
1371;BME280;14306;49.942;11.570;2024-02-04T03:56:51;98004.75;;;8.25;100.00
1371;BME280;14306;49.942;11.570;2024-02-04T03:58:25;97999.88;;;8.32;100.00
1371;BME280;14306;49.942;11.570;2024-02-04T04:00:04;97977.75;;;8.20;100.00
1371;BME280;14306;49.942;11.570;2024-02-04T04:01:39;97991.75;;;8.37;100.00
1371;BME280;14306;49.942;11.570;2024-02-04T04:03:16;98004.50;;;8.22;100.00
1371;BME280;14306;49.942;11.570;2024-02-04T04:04:49;97991.25;;;8.35;100.00
1371;BME280;14306;49.942;11.570;2024-02-04T04:06:23;97992.31;;;8.39;100.00
1371;BME280;14306;49.942;11.570;2024-02-04T04:07:57;97980.19;;;8.27;100.00
1371;BME280;14306;49.942;11.570;2024-02-04T04:09:32;97976.16;;;8.19;100.00
1371;BME280;14306;49.942;11.570;2024-02-04T04:11:08;97992.06;;;8.31;100.00
1371;BME280;14306;49.942;11.570;2024-02-04T04:12:42;97959.16;;;8.24;100.00
1371;BME280;14306;49.942;11.570;2024-02-04T04:14:16;97983.16;;;8.35;100.00
1371;BME280;14306;49.942;11.570;2024-02-04T04:15:52;97980.16;;;8.32;100.00
1371;BME280;14306;49.942;11.570;2024-02-04T04:17:25;97975.59;;;8.32;100.00
1371;BME280;14306;49.942;11.570;2024-02-04T04:18:59;97961.84;;;8.24;100.00
1371;BME280;14306;49.942;11.570;2024-02-04T04:20:34;97975.06;;;8.25;100.00
1371;BME280;14306;49.942;11.570;2024-02-04T04:22:07;97982.34;;;8.30;100.00
1371;BME280;14306;49.942;11.570;2024-02-04T04:23:42;97965.09;;;8.26;100.00
1371;BME280;14306;49.942;11.570;2024-02-04T04:25:15;97976.41;;;8.33;100.00
1371;BME280;14306;49.942;11.570;2024-02-04T04:26:50;97987.78;;;8.25;100.00
1371;BME280;14306;49.942;11.570;2024-02-04T04:28:24;97978.59;;;8.26;100.00
1371;BME280;14306;49.942;11.570;2024-02-04T04:29:58;97972.66;;;8.29;100.00
1371;BME280;14306;49.942;11.570;2024-02-04T04:31:33;97979.66;;;8.30;100.00
1371;BME280;14306;49.942;11.570;2024-02-04T04:33:07;97977.47;;;8.32;100.00
1371;BME280;14306;49.942;11.570;2024-02-04T04:34:41;97947.81;;;8.27;100.00
1371;BME280;14306;49.942;11.570;2024-02-04T04:36:16;97961.06;;;8.23;100.00
1371;BME280;14306;49.942;11.570;2024-02-04T04:37:51;97958.88;;;8.25;100.00
1371;BME280;14306;49.942;11.570;2024-02-04T04:39:25;97961.56;;;8.35;100.00
1371;BME280;14306;49.942;11.570;2024-02-04T04:41:00;97958.31;;;8.33;100.00
1371;BME280;14306;49.942;11.570;2024-02-04T04:42:33;97954.00;;;8.32;100.00
1371;BME280;14306;49.942;11.570;2024-02-04T04:44:08;97938.66;;;8.23;100.00
1371;BME280;14306;49.942;11.570;2024-02-04T04:45:41;97917.94;;;7.98;100.00
1371;BME280;14306;49.942;11.570;2024-02-04T04:47:17;97944.88;;;8.13;100.00
1371;BME280;14306;49.942;11.570;2024-02-04T04:48:51;97951.31;;;8.17;100.00
1371;BME280;14306;49.942;11.570;2024-02-04T04:50:25;97955.91;;;8.27;100.00
1371;BME280;14306;49.942;11.570;2024-02-04T04:52:00;97952.66;;;8.19;100.00
1371;BME280;14306;49.942;11.570;2024-02-04T04:53:33;97962.38;;;8.31;100.00
1371;BME280;14306;49.942;11.570;2024-02-04T04:55:08;97957.53;;;8.28;100.00
1371;BME280;14306;49.942;11.570;2024-02-04T04:56:42;97956.44;;;8.34;100.00
1371;BME280;14306;49.942;11.570;2024-02-04T04:58:16;97965.06;;;8.31;100.00
1371;BME280;14306;49.942;11.570;2024-02-04T04:59:50;97959.41;;;8.32;100.00
1371;BME280;14306;49.942;11.570;2024-02-04T05:01:24;97951.03;;;8.34;100.00
1371;BME280;14306;49.942;11.570;2024-02-04T05:02:59;97969.66;;;8.30;100.00
1371;BME280;14306;49.942;11.570;2024-02-04T05:04:33;97977.47;;;8.37;100.00
1371;BME280;14306;49.942;11.570;2024-02-04T05:06:07;97974.50;;;8.33;100.00
1371;BME280;14306;49.942;11.570;2024-02-04T05:07:42;97968.34;;;8.23;100.00
1371;BME280;14306;49.942;11.570;2024-02-04T05:09:16;97970.75;;;8.24;100.00
1371;BME280;14306;49.942;11.570;2024-02-04T05:10:49;97975.34;;;8.24;100.00
1371;BME280;14306;49.942;11.570;2024-02-04T05:12:25;97976.16;;;8.19;100.00
1371;BME280;14306;49.942;11.570;2024-02-04T05:13:58;97972.09;;;8.27;100.00
1371;BME280;14306;49.942;11.570;2024-02-04T05:15:32;97965.91;;;8.16;100.00
1371;BME280;14306;49.942;11.570;2024-02-04T05:17:07;97971.28;;;8.11;100.00
1371;BME280;14306;49.942;11.570;2024-02-04T05:18:44;97983.72;;;8.22;100.00
1371;BME280;14306;49.942;11.570;2024-02-04T05:20:17;97972.91;;;8.22;100.00
1371;BME280;14306;49.942;11.570;2024-02-04T05:21:51;97966.47;;;8.23;100.00
1371;BME280;14306;49.942;11.570;2024-02-04T05:23:24;97968.59;;;8.21;100.00
1371;BME280;14306;49.942;11.570;2024-02-04T05:24:59;97972.91;;;8.32;100.00
1371;BME280;14306;49.942;11.570;2024-02-04T05:26:32;97968.59;;;8.31;100.00
1371;BME280;14306;49.942;11.570;2024-02-04T05:28:06;97960.50;;;8.26;100.00
1371;BME280;14306;49.942;11.570;2024-02-04T05:29:40;97957.25;;;8.29;100.00
1371;BME280;14306;49.942;11.570;2024-02-04T05:31:14;97957.53;;;8.23;100.00
1371;BME280;14306;49.942;11.570;2024-02-04T05:32:48;97942.97;;;8.29;100.00
1371;BME280;14306;49.942;11.570;2024-02-04T05:34:23;97940.28;;;8.13;100.00
1371;BME280;14306;49.942;11.570;2024-02-04T05:35:57;97948.63;;;8.22;100.00
1371;BME280;14306;49.942;11.570;2024-02-04T05:37:31;97953.47;;;8.25;100.00
1371;BME280;14306;49.942;11.570;2024-02-04T05:39:09;97954.28;;;8.20;100.00
1371;BME280;14306;49.942;11.570;2024-02-04T05:40:43;97950.50;;;8.32;100.00
1371;BME280;14306;49.942;11.570;2024-02-04T05:42:17;97947.00;;;8.31;100.00
1371;BME280;14306;49.942;11.570;2024-02-04T05:43:50;97952.16;;;8.18;100.00
1371;BME280;14306;49.942;11.570;2024-02-04T05:45:24;97950.81;;;8.10;100.00
1371;BME280;14306;49.942;11.570;2024-02-04T05:46:58;97959.41;;;8.17;100.00
1371;BME280;14306;49.942;11.570;2024-02-04T05:48:32;97955.91;;;8.16;100.00
1371;BME280;14306;49.942;11.570;2024-02-04T05:50:08;97943.25;;;8.07;100.00
1371;BME280;14306;49.942;11.570;2024-02-04T05:51:43;97938.91;;;8.11;100.00
1371;BME280;14306;49.942;11.570;2024-02-04T05:53:16;97925.44;;;8.16;100.00
1371;BME280;14306;49.942;11.570;2024-02-04T05:54:50;97932.44;;;8.17;100.00
1371;BME280;14306;49.942;11.570;2024-02-04T05:56:25;97944.91;;;8.08;100.00
1371;BME280;14306;49.942;11.570;2024-02-04T05:57:59;97944.63;;;8.04;100.00
1371;BME280;14306;49.942;11.570;2024-02-04T05:59:33;97947.34;;;7.89;100.00
1371;BME280;14306;49.942;11.570;2024-02-04T06:01:07;97941.63;;;8.11;100.00
1371;BME280;14306;49.942;11.570;2024-02-04T06:02:40;97940.28;;;8.08;100.00
1371;BME280;14306;49.942;11.570;2024-02-04T06:04:16;97950.56;;;8.06;100.00
1371;BME280;14306;49.942;11.570;2024-02-04T06:05:51;97956.47;;;8.08;100.00
1371;BME280;14306;49.942;11.570;2024-02-04T06:07:24;97955.69;;;8.08;100.00
1371;BME280;14306;49.942;11.570;2024-02-04T06:08:59;97937.84;;;8.07;100.00
1371;BME280;14306;49.942;11.570;2024-02-04T06:10:33;97915.78;;;8.00;100.00
1371;BME280;14306;49.942;11.570;2024-02-04T06:12:07;97931.94;;;8.15;100.00
1371;BME280;14306;49.942;11.570;2024-02-04T06:13:42;97934.88;;;8.08;100.00
1371;BME280;14306;49.942;11.570;2024-02-04T06:15:17;97932.72;;;8.15;100.00
1371;BME280;14306;49.942;11.570;2024-02-04T06:16:50;97921.47;;;7.98;100.00
1371;BME280;14306;49.942;11.570;2024-02-04T06:18:24;97910.38;;;8.05;100.00
1371;BME280;14306;49.942;11.570;2024-02-04T06:19:58;97922.25;;;8.04;100.00
1371;BME280;14306;49.942;11.570;2024-02-04T06:21:35;97906.91;;;7.89;100.00
1371;BME280;14306;49.942;11.570;2024-02-04T06:23:08;97923.03;;;8.04;100.00
1371;BME280;14306;49.942;11.570;2024-02-04T06:24:43;97914.94;;;8.04;100.00
1371;BME280;14306;49.942;11.570;2024-02-04T06:26:17;97914.44;;;8.02;100.00
1371;BME280;14306;49.942;11.570;2024-02-04T06:27:50;97893.69;;;7.93;100.00
1371;BME280;14306;49.942;11.570;2024-02-04T06:29:25;97891.56;;;7.80;100.00
1371;BME280;14306;49.942;11.570;2024-02-04T06:30:58;97922.25;;;7.99;100.00
1371;BME280;14306;49.942;11.570;2024-02-04T06:32:32;97921.19;;;7.95;100.00
1371;BME280;14306;49.942;11.570;2024-02-04T06:34:06;97925.22;;;7.97;100.00
1371;BME280;14306;49.942;11.570;2024-02-04T06:35:40;97921.47;;;7.98;100.00
1371;BME280;14306;49.942;11.570;2024-02-04T06:37:15;97931.66;;;8.11;100.00
1371;BME280;14306;49.942;11.570;2024-02-04T06:38:49;97920.91;;;7.96;100.00
1371;BME280;14306;49.942;11.570;2024-02-04T06:40:23;97931.13;;;8.04;100.00
1371;BME280;14306;49.942;11.570;2024-02-04T06:41:57;97925.50;;;7.96;100.00
1371;BME280;14306;49.942;11.570;2024-02-04T06:43:32;97926.31;;;8.01;100.00
1371;BME280;14306;49.942;11.570;2024-02-04T06:45:09;97926.81;;;8.03;100.00
1371;BME280;14306;49.942;11.570;2024-02-04T06:46:44;97924.94;;;8.04;100.00
1371;BME280;14306;49.942;11.570;2024-02-04T06:48:19;97943.78;;;8.14;100.00
1371;BME280;14306;49.942;11.570;2024-02-04T06:49:53;97938.91;;;8.11;100.00
1371;BME280;14306;49.942;11.570;2024-02-04T06:51:27;97960.00;;;8.04;100.00
1371;BME280;14306;49.942;11.570;2024-02-04T06:53:03;97892.94;;;7.82;100.00
1371;BME280;14306;49.942;11.570;2024-02-04T06:54:37;97915.50;;;7.96;100.00
1371;BME280;14306;49.942;11.570;2024-02-04T06:56:12;97930.91;;;7.91;100.00
1371;BME280;14306;49.942;11.570;2024-02-04T06:57:47;97912.03;;;7.96;100.00
1371;BME280;14306;49.942;11.570;2024-02-04T06:59:21;97924.41;;;8.02;100.00
1371;BME280;14306;49.942;11.570;2024-02-04T07:00:56;97933.81;;;8.04;100.00
1371;BME280;14306;49.942;11.570;2024-02-04T07:02:30;97935.16;;;8.12;100.00
1371;BME280;14306;49.942;11.570;2024-02-04T07:04:04;97943.00;;;8.13;100.00
1371;BME280;14306;49.942;11.570;2024-02-04T07:05:39;97934.66;;;8.05;100.00
1371;BME280;14306;49.942;11.570;2024-02-04T07:07:12;97922.78;;;8.01;100.00
1371;BME280;14306;49.942;11.570;2024-02-04T07:08:48;97929.78;;;8.12;100.00
1371;BME280;14306;49.942;11.570;2024-02-04T07:10:23;97925.75;;;8.09;100.00
1371;BME280;14306;49.942;11.570;2024-02-04T07:11:57;97928.44;;;8.09;100.00
1371;BME280;14306;49.942;11.570;2024-02-04T07:13:31;97927.63;;;8.09;100.00
1371;BME280;14306;49.942;11.570;2024-02-04T07:15:05;97939.22;;;8.09;100.00
1371;BME280;14306;49.942;11.570;2024-02-04T07:16:41;97939.50;;;8.08;100.00
1371;BME280;14306;49.942;11.570;2024-02-04T07:18:14;97941.16;;;7.94;100.00
1371;BME280;14306;49.942;11.570;2024-02-04T07:19:50;97950.03;;;8.09;100.00
1371;BME280;14306;49.942;11.570;2024-02-04T07:21:23;97943.81;;;8.09;100.00
1371;BME280;14306;49.942;11.570;2024-02-04T07:22:58;97945.97;;;8.12;100.00
1371;BME280;14306;49.942;11.570;2024-02-04T07:24:34;97945.13;;;8.27;100.00
1371;BME280;14306;49.942;11.570;2024-02-04T07:26:08;97932.19;;;8.24;100.00
1371;BME280;14306;49.942;11.570;2024-02-04T07:27:42;97923.84;;;8.10;100.00
1371;BME280;14306;49.942;11.570;2024-02-04T07:29:16;97928.41;;;8.14;100.00
1371;BME280;14306;49.942;11.570;2024-02-04T07:30:51;97929.78;;;8.12;100.00
1371;BME280;14306;49.942;11.570;2024-02-04T07:32:24;97930.84;;;8.21;100.00
1371;BME280;14306;49.942;11.570;2024-02-04T07:33:58;97907.06;;;8.18;100.00
1371;BME280;14306;49.942;11.570;2024-02-04T07:35:33;97940.75;;;8.41;100.00
1371;BME280;14306;49.942;11.570;2024-02-04T07:37:07;97934.59;;;8.25;100.00
1371;BME280;14306;49.942;11.570;2024-02-04T07:38:41;97948.88;;;8.31;100.00
1371;BME280;14306;49.942;11.570;2024-02-04T07:40:16;97923.03;;;8.25;100.00
1371;BME280;14306;49.942;11.570;2024-02-04T07:41:51;97932.66;;;8.36;100.00
1371;BME280;14306;49.942;11.570;2024-02-04T07:43:27;97932.44;;;8.22;100.00
1371;BME280;14306;49.942;11.570;2024-02-04T07:45:01;97918.69;;;8.24;100.00
1371;BME280;14306;49.942;11.570;2024-02-04T07:46:41;97919.19;;;8.31;100.00
1371;BME280;14306;49.942;11.570;2024-02-04T07:48:15;97931.13;;;8.25;100.00
1371;BME280;14306;49.942;11.570;2024-02-04T07:49:50;97922.44;;;8.33;100.00
1371;BME280;14306;49.942;11.570;2024-02-04T07:51:25;97918.09;;;8.32;100.00
1371;BME280;14306;49.942;11.570;2024-02-04T07:52:58;97921.88;;;8.36;100.00
1371;BME280;14306;49.942;11.570;2024-02-04T07:54:33;97935.06;;;8.47;100.00
1371;BME280;14306;49.942;11.570;2024-02-04T07:56:08;97923.16;;;8.48;100.00
1371;BME280;14306;49.942;11.570;2024-02-04T07:57:43;97939.91;;;8.45;100.00
1371;BME280;14306;49.942;11.570;2024-02-04T07:59:17;97937.72;;;8.52;100.00
1371;BME280;14306;49.942;11.570;2024-02-04T08:00:51;97939.13;;;8.45;100.00
1371;BME280;14306;49.942;11.570;2024-02-04T08:02:25;97956.03;;;8.65;100.00
1371;BME280;14306;49.942;11.570;2024-02-04T08:03:59;97957.09;;;8.64;100.00
1371;BME280;14306;49.942;11.570;2024-02-04T08:05:34;97946.56;;;8.63;100.00
1371;BME280;14306;49.942;11.570;2024-02-04T08:07:09;97961.75;;;8.54;100.00
1371;BME280;14306;49.942;11.570;2024-02-04T08:08:44;97945.56;;;8.49;100.00
1371;BME280;14306;49.942;11.570;2024-02-04T08:10:20;97921.88;;;8.36;100.00
1371;BME280;14306;49.942;11.570;2024-02-04T08:11:56;97952.31;;;8.51;100.00
1371;BME280;14306;49.942;11.570;2024-02-04T08:13:31;97940.69;;;8.51;100.00
1371;BME280;14306;49.942;11.570;2024-02-04T08:15:08;97951.19;;;8.62;100.00
1371;BME280;14306;49.942;11.570;2024-02-04T08:16:41;97930.19;;;8.44;100.00
1371;BME280;14306;49.942;11.570;2024-02-04T08:18:16;97947.69;;;8.57;100.00
1371;BME280;14306;49.942;11.570;2024-02-04T08:19:49;97930.94;;;8.55;100.00
1371;BME280;14306;49.942;11.570;2024-02-04T08:21:25;97931.78;;;8.55;100.00